Latest Coastal Weather Observations for Shark Bay Airport

IDW60701

Issued at 2:22 pm WST Thursday 29 January 2015 (issued every 10 minutes, with the page automatically refreshed every 10 minutes)

About coastal observations | Map of coastal stations | Coastal observations for WA | Marine services | Other Formats
Station Details ID: 006105 Name: SHARK BAY AIRPORT Lat: -25.89 Lon: 113.58 Height: 33.8 m
Data from the previous 72 hours. | See also: Recent months for locations in Western Australia
Date/Time
WST
Temp

°C
Wind Pressure Rain
since 9am
mm
Weather Cloud Vis
km
Sea
Height
m
Swell
Dir
 
Speed
knots
Gust
knots
hPa Trend Height
m
Period
s
Dir
29/02:00pm 30.5 SSW 18 25 1006.1 - 0.0 - - - - - - -
29/01:30pm 30.2 SSW 19 26 1006.5 - 0.0 - - - - - - -
29/01:00pm 30.4 S 17 23 1006.8 - 0.0 - - - - - - -
29/12:30pm 29.7 SSW 18 23 1007.2 - 0.0 - - - - - - -
29/12:00pm 28.6 SSW 19 25 1007.4 - 0.0 - - - - - - -
29/11:30am 29.3 SSW 17 22 1007.6 - 0.0 - - - - - - -
29/11:00am 28.7 SSW 17 22 1007.9 - 0.0 - - - - - - -
29/10:30am 28.2 SSW 15 21 1008.0 - 0.0 - - - - - - -
29/10:00am 27.4 SSW 17 21 1008.1 - 0.0 - - - - - - -
29/09:30am 26.6 SSW 15 21 1008.0 - 0.0 - - - - - - -
29/09:00am 26.0 S 15 20 1007.9 - 0.0 - - - - - - -
29/08:30am 26.0 S 14 19 1008.1 - 0.0 - - - - - - -
29/08:00am 24.7 S 16 21 1007.9 - 0.0 - - - - - - -
29/07:30am 23.6 S 15 20 1007.5 - 0.0 - - - - - - -
29/07:00am 23.1 S 13 19 1007.3 - 0.0 - - - - - - -
29/06:30am 22.5 S 11 15 1006.8 - 0.0 - - - - - - -
29/06:00am 22.5 SSW 14 19 1006.5 - 0.0 - - - - - - -
29/05:30am 22.6 SSW 12 19 1006.3 - 0.0 - - - - - - -
29/05:00am 22.5 SSW 14 18 1005.9 - 0.0 - - - - - - -
29/04:30am 22.5 SSW 13 18 1005.8 - 0.0 - - - - - - -
29/04:00am 22.4 SSW 15 20 1005.8 - 0.0 - - - - - - -
29/03:30am 22.4 SSW 16 23 1005.6 - 0.0 - - - - - - -
29/03:00am 22.5 SSW 14 19 1005.5 - 0.0 - - - - - - -
29/02:30am 22.6 SSW 13 16 1005.9 - 0.0 - - - - - - -
29/02:00am 22.7 S 11 17 1006.1 - 0.0 - - - - - - -
29/01:30am 22.5 S 13 19 1006.2 - 0.0 - - - - - - -
29/01:00am 22.8 S 13 19 1006.5 - 0.0 - - - - - - -
29/12:30am 22.7 S 14 19 1006.8 - 0.0 - - - - - - -
29/12:00am 22.7 S 13 20 1007.1 - 0.0 - - - - - - -
 
Date/Time
WST
Temp

°C
Wind Pressure Rain
since 9am
mm
Weather Cloud Vis
km
Sea
Height
m
Swell
Dir
 
Speed
knots
Gust
knots
hPa Trend Height
m
Period
s
Dir
28/11:30pm 22.7 S 16 22 1006.9 - 0.0 - - - - - - -
28/11:00pm 23.0 S 15 19 1006.9 - 0.0 - - - - - - -
28/10:30pm 23.2 SSW 15 23 1006.7 - 0.0 - - - - - - -
28/10:00pm 23.3 SSW 16 22 1006.7 - 0.0 - - - - - - -
28/09:30pm 23.6 SSW 14 20 1006.6 - 0.0 - - - - - - -
28/09:00pm 23.8 S 14 19 1006.7 - 0.0 - - - - - - -
28/08:30pm 24.0 SSW 15 21 1006.4 - 0.0 - - - - - - -
28/08:00pm 24.6 SSW 14 20 1006.3 - 0.0 - - - - - - -
28/07:30pm 25.4 SSW 15 21 1005.9 - 0.0 - - - - - - -
28/07:00pm 26.1 SSW 16 22 1005.3 - 0.0 - - - - - - -
28/06:30pm 27.1 SSW 17 23 1005.0 - 0.0 - - - - - - -
28/06:00pm 28.1 SSW 16 21 1004.7 - 0.0 - - - - - - -
28/05:30pm 28.2 SW 17 22 1004.4 - 0.0 - - - - - - -
28/05:00pm 28.5 SW 17 23 1004.3 - 0.0 - - - - - - -
28/04:30pm 28.9 SW 17 24 1004.4 - 0.0 - - - - - - -
28/04:00pm 30.0 SW 16 21 1004.7 - 0.0 - - - - - - -
28/03:30pm 30.6 SW 15 21 1004.9 - 0.0 - - - - - - -
28/03:00pm 30.9 SW 16 21 1005.0 - 0.0 - - - - - - -
28/02:30pm 30.9 SW 15 23 1005.1 - 0.0 - - - - - - -
28/02:00pm 30.6 SW 16 21 1005.3 - 0.0 - - - - - - -
28/01:30pm 31.5 SW 14 20 1005.7 - 0.0 - - - - - - -
28/01:00pm 30.6 SW 16 20 1005.9 - 0.0 - - - - - - -
28/12:30pm 30.5 SW 14 19 1006.2 - 0.0 - - - - - - -
28/12:00pm 30.7 SW 13 19 1006.5 - 0.0 - - - - - - -
28/11:30am 30.7 SW 11 16 1006.7 - 0.0 - - - - - - -
28/11:00am 30.7 SSW 11 16 1006.8 - 0.0 - - - - - - -
28/10:30am 30.3 SW 10 15 1007.0 - 0.0 - - - - - - -
28/10:00am 28.5 SW 11 14 1007.0 - 0.0 - - - - - - -
28/09:30am 27.7 SW 10 14 1006.8 - 0.0 - - - - - - -
28/09:00am 26.6 SSW 11 15 1007.0 - 0.0 - - - - - - -
28/08:30am 26.2 SW 13 17 1006.8 - 0.0 - - - - - - -
28/08:00am 25.7 SSW 12 16 1006.7 - 0.0 - - - - - - -
28/07:30am 25.1 SSW 10 14 1006.6 - 0.0 - - - - - - -
28/07:00am 24.1 SSW 9 13 1006.4 - 0.0 - - - - - - -
28/06:30am 23.2 SSW 7 11 1006.0 - 0.0 - - - - - - -
28/06:00am 23.0 SSW 9 11 1005.7 - 0.0 - - - - - - -
28/05:30am 23.0 SSW 9 12 1005.3 - 0.0 - - - - - - -
28/05:00am 23.1 SSW 10 14 1005.1 - 0.0 - - - - - - -
28/04:30am 23.2 SSW 10 13 1005.0 - 0.0 - - - - - - -
28/04:00am 23.2 SSW 10 13 1004.9 - 0.0 - - - - - - -
28/03:30am 23.2 SSW 10 13 1004.9 - 0.0 - - - - - - -
28/03:00am 23.2 SW 11 15 1004.9 - 0.0 - - - - - - -
28/02:30am 23.2 SW 10 15 1004.9 - 0.0 - - - - - - -
28/02:00am 23.1 SW 11 16 1004.8 - 0.0 - - - - - - -
28/01:30am 23.1 SW 11 13 1004.9 - 0.0 - - - - - - -
28/01:00am 23.2 SW 10 15 1005.1 - 0.0 - - - - - - -
28/12:30am 23.1 SW 10 13 1005.1 - 0.0 - - - - - - -
28/12:00am 23.4 SW 11 15 1005.4 - 0.0 - - - - - - -
 
Date/Time
WST
Temp

°C
Wind Pressure Rain
since 9am
mm
Weather Cloud Vis
km
Sea
Height
m
Swell
Dir
 
Speed
knots
Gust
knots
hPa Trend Height
m
Period
s
Dir
27/11:30pm 23.5 SSW 12 16 1005.6 - 0.0 - - - - - - -
27/11:00pm 23.4 SSW 11 15 1005.6 - 0.0 - - - - - - -
27/10:30pm 23.7 SSW 12 17 1005.8 - 0.0 - - - - - - -
27/10:00pm 23.7 SSW 12 18 1005.8 - 0.0 - - - - - - -
27/09:30pm 23.8 SW 11 15 1005.8 - 0.0 - - - - - - -
27/09:00pm 23.9 SW 12 15 1005.8 - 0.0 - - - - - - -
27/08:30pm 24.2 SW 12 16 1005.6 - 0.0 - - - - - - -
27/08:00pm 24.3 SW 14 18 1005.6 - 0.0 - - - - - - -
27/07:30pm 24.6 SW 15 21 1005.3 - 0.0 - - - - - - -
27/07:00pm 24.9 SW 14 18 1005.1 - 0.0 - - - - - - -
27/06:30pm 25.0 WSW 16 21 1004.8 - 0.0 - - - - - - -
27/06:00pm 25.5 WSW 16 20 1004.6 - 0.0 - - - - - - -
27/05:30pm 26.3 WSW 16 21 1004.3 - 0.0 - - - - - - -
27/05:00pm 26.4 WSW 14 19 1004.1 - 0.0 - - - - - - -
27/04:30pm 27.3 WSW 14 20 1004.2 - 0.0 - - - - - - -
27/04:00pm 27.8 WSW 13 19 1004.4 - 0.0 - - - - - - -
27/03:30pm 27.3 WSW 14 21 1004.5 - 0.0 - - - - - - -
27/03:00pm 28.6 W 14 19 1004.6 - 0.0 - - - - - - -
27/02:30pm 28.6 WSW 14 21 1004.8 - 0.0 - - - - - - -
27/02:00pm 29.5 W 13 20 1005.0 - 0.0 - - - - - - -
27/01:30pm 29.3 WSW 13 19 1005.2 - 0.0 - - - - - - -
27/01:00pm 29.4 WSW 11 17 1005.3 - 0.0 - - - - - - -
27/12:30pm 29.5 WSW 12 17 1005.1 - 0.0 - - - - - - -
27/12:00pm 28.3 WSW 10 14 1005.4 - 0.0 - - - - - - -
27/11:30am 28.6 W 10 15 1005.5 - 0.0 - - - - - - -
27/11:00am 27.9 W 10 14 1005.6 - 0.0 - - - - - - -
27/10:30am 26.8 W 8 14 1005.9 - 0.0 - - - - - - -
27/10:00am 25.9 W 9 12 1005.8 - 0.0 - - - - - - -
27/09:30am 25.8 WSW 8 11 1005.7 - 0.0 - - - - - - -
27/09:00am 25.4 WSW 9 12 1005.5 - 0.0 - - - - - - -
27/08:30am 25.4 SW 8 12 1005.4 - 0.0 - - - - - - -
27/08:00am 24.6 SW 9 11 1005.1 - 0.0 - - - - - - -
27/07:30am 24.6 SW 9 13 1004.8 - 0.0 - - - - - - -
27/07:00am 23.8 SW 9 11 1005.0 - 0.0 - - - - - - -
27/06:30am 23.3 SSW 8 10 1004.7 - 0.0 - - - - - - -
27/06:00am 23.0 SSW 8 11 1004.5 - 0.0 - - - - - - -
27/05:30am 22.9 SW 10 14 1004.5 - 0.0 - - - - - - -
27/05:00am 22.8 SW 9 12 1004.2 - 0.0 - - - - - - -
27/04:30am 22.8 SW 10 13 1004.1 - 0.0 - - - - - - -
27/04:00am 22.8 SW 11 16 1003.8 - 0.0 - - - - - - -
27/03:30am 22.6 SW 9 12 1003.8 - 0.0 - - - - - - -
27/03:00am 22.8 SW 10 14 1003.5 - 0.0 - - - - - - -
27/02:30am 23.0 SSW 12 19 1003.4 - 0.0 - - - - - - -
27/02:00am 23.1 SW 12 16 1003.3 - 0.0 - - - - - - -
27/01:30am 23.1 SW 11 16 1003.4 - 0.0 - - - - - - -
27/01:00am 23.0 SW 11 15 1003.6 - 0.0 - - - - - - -
27/12:30am 23.1 SW 11 16 1004.1 - 0.0 - - - - - - -
27/12:00am 23.1 SW 10 14 1004.5 - 0.0 - - - - - - -
 
Date/Time
WST
Temp

°C
Wind Pressure Rain
since 9am
mm
Weather Cloud Vis
km
Sea
Height
m
Swell
Dir
 
Speed
knots
Gust
knots
hPa Trend Height
m
Period
s
Dir
26/11:30pm 23.3 SW 11 15 1004.5 - 0.0 - - - - - - -
26/11:00pm 23.4 SW 11 15 1004.8 - 0.0 - - - - - - -
26/10:30pm 23.6 SW 11 15 1004.9 - 0.0 - - - - - - -
26/10:00pm 23.8 SW 11 16 1005.0 - 0.0 - - - - - - -
26/09:30pm 24.1 SW 11 16 1005.0 - 0.0 - - - - - - -
26/09:00pm 24.3 SW 11 16 1005.1 - 0.0 - - - - - - -
26/08:30pm 24.6 SW 11 15 1005.0 - 0.0 - - - - - - -
26/08:00pm 25.1 SW 10 13 1004.7 - 0.0 - - - - - - -
26/07:30pm 25.6 SW 11 17 1004.1 - 0.0 - - - - - - -
26/07:00pm 26.6 SW 13 17 1003.6 - 0.0 - - - - - - -
26/06:30pm 27.8 SW 12 16 1003.5 - 0.0 - - - - - - -
26/06:00pm 28.6 SW 13 18 1003.2 - 0.0 - - - - - - -
26/05:30pm 29.2 SW 15 19 1002.9 - 0.0 - - - - - - -
26/05:00pm 30.9 SW 15 20 1002.7 - 0.0 - - - - - - -
26/04:30pm 30.4 SW 16 22 1002.7 - 0.0 - - - - - - -
26/04:00pm 31.3 SW 14 19 1002.8 - 0.0 - - - - - - -
26/03:30pm 32.6 WSW 15 19 1002.8 - 0.0 - - - - - - -
26/03:00pm 33.2 WSW 15 19 1002.9 - 0.0 - - - - - - -
26/02:30pm 33.2 WSW 14 18 1002.9 - 0.0 - - - - - - -

Other Formats:

Comma delimited format used in spreadsheet applications
http://www.bom.gov.au/fwo/IDW60701/IDW60701.95402.axf

JavaScript Object Notation format (JSON) in row-major order
http://www.bom.gov.au/fwo/IDW60701/IDW60701.95402.json